Time;durP1;ratioP1;P1;durP2;ratioP2;P2;SDS_P1;SDS_P2;PMS_P1;PMS_P2;Temp;Humidity;BMP_temperature;BMP_pressure;BME280_temperature;BME280_humidity;BME280_pressure;Samples;Min_cycle;Max_cycle;Signal;HPM_P1;HPM_P2
2022/03/08 00:01:43;;;;;;;31.67;16.70;;;0.10;99.90;;;;;;5015806;28;20213;-68
2022/03/08 00:04:10;;;;;;;32.13;16.20;;;0.00;99.90;;;;;;5015739;28;20209;-69
2022/03/08 00:06:37;;;;;;;46.07;21.03;;;0.00;99.90;;;;;;5015469;28;20572;-69
2022/03/08 00:09:04;;;;;;;51.40;23.80;;;-0.10;99.90;;;;;;5015509;28;20217;-69
2022/03/08 00:11:32;;;;;;;45.17;20.60;;;-0.10;99.90;;;;;;5015031;28;20249;-69
2022/03/08 00:13:59;;;;;;;35.47;18.33;;;-0.10;99.90;;;;;;5015357;28;20210;-68
2022/03/08 00:16:28;;;;;;;41.33;18.87;;;-0.10;99.90;;;;;;5015025;28;20233;-68
2022/03/08 00:18:55;;;;;;;37.80;18.17;;;-0.10;99.90;;;;;;5015416;28;20261;-68
2022/03/08 00:21:22;;;;;;;34.57;17.50;;;-0.10;99.90;;;;;;5015012;28;20211;-68
2022/03/08 00:23:49;;;;;;;36.03;17.13;;;-0.20;99.90;;;;;;5015272;28;20222;-68
2022/03/08 00:26:16;;;;;;;31.37;16.63;;;-0.20;99.90;;;;;;5014827;28;20214;-68
2022/03/08 00:28:44;;;;;;;28.90;15.20;;;-0.20;99.90;;;;;;5015293;28;20747;-69
2022/03/08 00:31:11;;;;;;;28.40;15.63;;;-0.20;99.90;;;;;;5014910;28;20213;-69
2022/03/08 00:33:40;;;;;;;31.80;15.83;;;-0.30;99.90;;;;;;5015170;28;20562;-69
2022/03/08 00:36:08;;;;;;;26.55;14.30;;;-0.30;99.90;;;;;;5015103;28;20571;-69
2022/03/08 00:38:35;;;;;;;28.13;15.27;;;-0.30;99.90;;;;;;5014550;28;20207;-68
2022/03/08 00:41:02;;;;;;;28.80;15.93;;;-0.30;99.90;;;;;;5013999;28;20203;-68
2022/03/08 00:43:29;;;;;;;26.90;16.17;;;-0.30;99.90;;;;;;5014529;28;20218;-70
2022/03/08 00:45:56;;;;;;;47.67;22.33;;;-0.30;99.90;;;;;;5014738;28;20214;-69
2022/03/08 00:48:24;;;;;;;52.63;23.57;;;-0.30;99.90;;;;;;5014752;28;20209;-70
2022/03/08 00:50:52;;;;;;;57.40;27.20;;;-0.30;99.90;;;;;;5014516;28;20206;-69
2022/03/08 00:53:20;;;;;;;66.43;26.20;;;-0.30;99.90;;;;;;5014672;28;20720;-69
2022/03/08 00:55:47;;;;;;;72.93;31.50;;;-0.30;99.90;;;;;;5014792;28;20207;-69
2022/03/08 00:58:14;;;;;;;70.77;31.37;;;-0.30;99.90;;;;;;5014592;28;20233;-68
2022/03/08 01:00:42;;;;;;;80.23;34.83;;;-0.30;99.90;;;;;;5014512;28;20207;-69
2022/03/08 01:03:10;;;;;;;97.50;40.37;;;-0.30;99.90;;;;;;5014519;28;20632;-69
2022/03/08 01:05:37;;;;;;;84.67;37.07;;;-0.30;99.90;;;;;;5014289;28;20211;-68
2022/03/08 01:08:07;;;;;;;75.33;34.47;;;-0.40;99.90;;;;;;5014223;28;20207;-68
2022/03/08 01:10:34;;;;;;;70.47;32.80;;;-0.30;99.90;;;;;;5014109;28;20246;-69
2022/03/08 01:13:02;;;;;;;83.33;35.57;;;-0.40;99.90;;;;;;5014186;28;20236;-69
2022/03/08 01:15:29;;;;;;;70.40;31.33;;;-0.30;99.90;;;;;;5013967;28;20206;-69
2022/03/08 01:17:57;;;;;;;71.73;31.77;;;-0.30;99.90;;;;;;5014223;28;20583;-68
2022/03/08 01:20:25;;;;;;;74.40;33.97;;;-0.30;99.90;;;;;;5013803;28;20206;-69
2022/03/08 01:22:52;;;;;;;66.97;32.67;;;-0.30;99.90;;;;;;5014137;28;20215;-68
2022/03/08 01:25:22;;;;;;;77.60;35.17;;;-0.30;99.90;;;;;;5014113;28;20206;-69
2022/03/08 01:27:49;;;;;;;77.03;35.97;;;-0.20;99.90;;;;;;5014465;28;20198;-69
2022/03/08 01:30:22;;;;;;;73.23;33.50;;;-0.20;99.90;;;;;;5013805;28;20207;-69
2022/03/08 01:32:49;;;;;;;71.40;32.73;;;-0.10;99.90;;;;;;5014557;28;20191;-69
2022/03/08 01:35:17;;;;;;;73.27;32.63;;;-0.10;99.90;;;;;;5014838;28;20211;-69
2022/03/08 01:37:45;;;;;;;70.83;30.73;;;-0.10;99.90;;;;;;5015336;28;20317;-67
2022/03/08 01:40:15;;;;;;;58.93;28.37;;;0.00;99.90;;;;;;5014260;28;20202;-68
2022/03/08 01:42:46;;;;;;;54.60;25.37;;;0.00;99.90;;;;;;5014146;28;20583;-69
2022/03/08 01:45:14;;;;;;;49.47;24.47;;;0.00;99.90;;;;;;5013901;28;20290;-69
2022/03/08 01:47:41;;;;;;;42.63;19.70;;;0.00;99.90;;;;;;5013679;28;20203;-69
2022/03/08 01:50:10;;;;;;;43.90;21.50;;;0.10;99.90;;;;;;5013565;28;20694;-69
2022/03/08 01:52:39;;;;;;;41.97;20.27;;;0.10;99.90;;;;;;5013358;28;20217;-68
2022/03/08 01:55:08;;;;;;;37.27;19.37;;;0.10;99.90;;;;;;5013099;28;20254;-69
2022/03/08 01:57:35;;;;;;;39.37;17.77;;;0.00;99.90;;;;;;5013700;28;20708;-70
2022/03/08 02:00:06;;;;;;;34.80;17.97;;;-0.10;99.90;;;;;;5013394;28;20214;-68
2022/03/08 02:02:33;;;;;;;29.20;16.23;;;-0.10;99.90;;;;;;5013361;28;20192;-69
2022/03/08 02:05:00;;;;;;;27.83;15.20;;;-0.10;99.90;;;;;;5013329;28;20657;-68
2022/03/08 02:07:27;;;;;;;30.13;15.80;;;-0.10;99.90;;;;;;5013507;28;20207;-69
2022/03/08 02:09:54;;;;;;;28.73;15.03;;;-0.10;99.90;;;;;;5012973;28;20214;-67
2022/03/08 02:12:21;;;;;;;26.17;14.47;;;-0.10;99.90;;;;;;5013184;28;20219;-69
2022/03/08 02:14:48;;;;;;;29.17;14.10;;;-0.10;99.90;;;;;;5012998;28;20214;-68
2022/03/08 02:17:17;;;;;;;27.93;14.10;;;-0.10;99.90;;;;;;5013127;28;20237;-69
2022/03/08 02:19:44;;;;;;;26.13;13.27;;;0.00;99.90;;;;;;5013032;28;20211;-68
2022/03/08 02:22:13;;;;;;;23.90;13.27;;;0.00;99.90;;;;;;5013037;28;20214;-68
2022/03/08 02:24:40;;;;;;;27.47;13.83;;;0.00;99.90;;;;;;5012876;28;20207;-68
2022/03/08 02:27:08;;;;;;;28.90;14.00;;;0.00;99.90;;;;;;5012883;28;20211;-68
2022/03/08 02:29:35;;;;;;;28.07;14.27;;;0.00;99.90;;;;;;5012787;28;20206;-69
2022/03/08 02:32:02;;;;;;;24.73;12.90;;;0.00;99.90;;;;;;5012991;28;20313;-68
2022/03/08 02:34:29;;;;;;;25.37;12.80;;;0.00;99.90;;;;;;5012764;28;20207;-68
2022/03/08 02:37:01;;;;;;;24.23;12.87;;;0.00;99.90;;;;;;5012519;28;20202;-69
2022/03/08 02:39:29;;;;;;;26.83;14.17;;;0.00;99.90;;;;;;5012782;28;20199;-68
2022/03/08 02:41:56;;;;;;;24.57;11.93;;;-0.10;99.90;;;;;;5012751;28;20562;-69
2022/03/08 02:44:24;;;;;;;21.50;12.07;;;-0.10;99.90;;;;;;5012913;28;20214;-69
2022/03/08 02:46:52;;;;;;;21.50;11.37;;;-0.10;99.90;;;;;;5012894;28;20294;-68
2022/03/08 02:49:19;;;;;;;21.90;11.10;;;-0.10;99.90;;;;;;5012946;28;20270;-69
2022/03/08 02:51:46;;;;;;;20.13;11.40;;;-0.10;99.90;;;;;;5012718;28;20567;-69
2022/03/08 02:54:14;;;;;;;17.17;9.67;;;0.00;99.90;;;;;;5012112;28;20231;-68
2022/03/08 02:56:42;;;;;;;18.47;10.53;;;0.00;99.90;;;;;;5012941;28;20571;-68
2022/03/08 02:59:10;;;;;;;17.10;10.80;;;0.10;99.90;;;;;;5012291;28;20223;-69
2022/03/08 03:01:37;;;;;;;18.37;10.67;;;0.10;99.90;;;;;;5012418;28;20207;-70
2022/03/08 03:04:04;;;;;;;21.97;10.87;;;0.10;99.90;;;;;;5011863;28;20202;-68
2022/03/08 03:06:35;;;;;;;19.80;10.43;;;0.10;99.90;;;;;;5012177;28;20218;-69
2022/03/08 03:09:03;;;;;;;21.83;11.00;;;0.20;99.90;;;;;;5012501;28;20652;-68
2022/03/08 03:11:30;;;;;;;23.30;10.70;;;0.20;99.90;;;;;;5012321;28;20655;-68
2022/03/08 03:13:59;;;;;;;20.87;11.23;;;0.20;99.90;;;;;;5012028;28;20206;-68
2022/03/08 03:16:26;;;;;;;21.07;11.63;;;0.30;99.90;;;;;;5012237;28;20210;-69
2022/03/08 03:18:53;;;;;;;22.67;11.73;;;0.30;99.90;;;;;;5012080;28;20590;-69
2022/03/08 03:21:20;;;;;;;21.07;11.20;;;0.30;99.90;;;;;;5012062;28;20457;-69
2022/03/08 03:23:47;;;;;;;21.77;11.33;;;0.30;99.90;;;;;;5012451;28;20226;-69
2022/03/08 03:26:14;;;;;;;20.10;11.57;;;0.30;99.90;;;;;;5012016;28;20217;-69
2022/03/08 03:28:41;;;;;;;18.57;10.97;;;0.30;99.90;;;;;;5011985;28;20213;-68
2022/03/08 03:31:10;;;;;;;18.23;10.57;;;0.30;99.90;;;;;;5011938;28;20214;-69
2022/03/08 03:33:37;;;;;;;14.77;8.87;;;0.30;99.90;;;;;;5011900;28;20221;-69
2022/03/08 03:36:05;;;;;;;15.67;9.10;;;0.20;99.90;;;;;;5011880;28;20220;-69
2022/03/08 03:38:32;;;;;;;16.90;8.87;;;0.20;99.90;;;;;;5011748;28;20371;-68
2022/03/08 03:40:59;;;;;;;14.93;9.03;;;0.10;99.90;;;;;;5011665;28;20218;-69
2022/03/08 03:43:26;;;;;;;14.97;8.43;;;0.10;99.90;;;;;;5011756;28;20207;-69
2022/03/08 03:45:53;;;;;;;15.93;9.03;;;0.20;99.90;;;;;;5012091;28;20554;-68
2022/03/08 03:48:22;;;;;;;14.53;9.43;;;0.20;99.90;;;;;;5011894;28;20210;-69
2022/03/08 03:50:49;;;;;;;16.53;8.87;;;0.20;99.90;;;;;;5011850;28;20207;-68
2022/03/08 03:53:16;;;;;;;19.43;10.03;;;0.20;99.90;;;;;;5011670;28;20230;-68
2022/03/08 03:55:43;;;;;;;19.87;9.60;;;0.10;99.90;;;;;;5012232;28;20665;-68
2022/03/08 03:58:10;;;;;;;19.90;10.80;;;0.10;99.90;;;;;;5011608;28;20249;-69
2022/03/08 04:00:37;;;;;;;21.33;11.23;;;0.00;99.90;;;;;;5012058;28;20203;-70
2022/03/08 04:03:05;;;;;;;24.57;13.07;;;-0.10;99.90;;;;;;5011843;28;20213;-69
2022/03/08 04:05:34;;;;;;;35.13;18.67;;;-0.10;99.90;;;;;;5011791;28;20214;-69
2022/03/08 04:08:01;;;;;;;41.20;21.83;;;-0.10;99.90;;;;;;5011497;28;20203;-69
2022/03/08 04:10:28;;;;;;;49.03;26.87;;;-0.10;99.90;;;;;;5011453;28;20238;-68
2022/03/08 04:12:55;;;;;;;44.70;24.47;;;-0.10;99.90;;;;;;5011480;28;20215;-69
2022/03/08 04:15:23;;;;;;;47.63;25.30;;;-0.20;99.90;;;;;;5012194;28;20563;-69
2022/03/08 04:17:50;;;;;;;42.47;23.17;;;-0.20;99.90;;;;;;5015309;28;20714;-69
2022/03/08 04:20:17;;;;;;;40.27;22.47;;;-0.20;99.90;;;;;;5015065;28;20241;-69
2022/03/08 04:22:46;;;;;;;47.03;25.67;;;-0.20;99.90;;;;;;5015256;28;20572;-69
2022/03/08 04:25:13;;;;;;;37.53;22.73;;;-0.10;99.90;;;;;;5015329;28;20218;-71
2022/03/08 04:27:40;;;;;;;44.60;25.37;;;-0.10;99.90;;;;;;5014963;28;20202;-69
2022/03/08 04:30:09;;;;;;;41.40;23.73;;;-0.20;99.90;;;;;;5014874;28;20217;-69
2022/03/08 04:32:37;;;;;;;46.73;26.13;;;-0.20;99.90;;;;;;5014908;28;20217;-68
2022/03/08 04:35:05;;;;;;;54.17;30.80;;;-0.20;99.90;;;;;;5014975;28;20295;-68
2022/03/08 04:37:32;;;;;;;91.53;46.77;;;-0.30;99.90;;;;;;5014747;28;20217;-68
2022/03/08 04:40:01;;;;;;;93.07;51.80;;;-0.40;99.90;;;;;;5014887;28;20904;-69
2022/03/08 04:42:28;;;;;;;103.93;54.27;;;-0.40;99.90;;;;;;5014641;28;20207;-68
2022/03/08 04:44:55;;;;;;;98.37;51.13;;;-0.40;99.90;;;;;;5014576;28;20222;-69
2022/03/08 04:47:22;;;;;;;82.30;44.37;;;-0.50;99.90;;;;;;5014910;28;20469;-69
2022/03/08 04:49:50;;;;;;;65.87;35.77;;;-0.50;99.90;;;;;;5014488;28;20202;-68
2022/03/08 04:52:18;;;;;;;53.30;31.23;;;-0.50;99.90;;;;;;5014934;28;20206;-68
2022/03/08 04:54:45;;;;;;;56.80;31.40;;;-0.50;99.90;;;;;;5014496;28;20233;-70
2022/03/08 04:57:13;;;;;;;52.53;27.73;;;-0.50;99.90;;;;;;5014828;28;20288;-69
2022/03/08 04:59:40;;;;;;;51.37;29.80;;;-0.50;99.90;;;;;;5014161;28;20237;-69
2022/03/08 05:02:07;;;;;;;53.03;29.57;;;-0.50;99.90;;;;;;5014321;28;20211;-69
2022/03/08 05:04:35;;;;;;;50.40;29.87;;;-0.50;99.90;;;;;;5014397;28;20206;-68
2022/03/08 05:07:02;;;;;;;46.60;26.27;;;-0.40;99.90;;;;;;5014519;28;20590;-69
2022/03/08 05:09:29;;;;;;;41.27;23.50;;;-0.40;99.90;;;;;;5014227;28;20209;-68
2022/03/08 05:11:56;;;;;;;43.90;24.00;;;-0.30;99.90;;;;;;5013994;28;20585;-69
2022/03/08 05:14:24;;;;;;;45.40;26.97;;;-0.30;99.90;;;;;;5014082;28;20214;-69
2022/03/08 05:16:52;;;;;;;34.30;21.67;;;-0.30;99.90;;;;;;5013975;28;20270;-69
2022/03/08 05:19:19;;;;;;;34.43;20.80;;;-0.20;99.90;;;;;;5014358;28;20226;-69
2022/03/08 05:21:46;;;;;;;29.40;15.20;;;-0.20;99.90;;;;;;5013814;28;20211;-70
2022/03/08 05:24:14;;;;;;;20.87;12.47;;;-0.20;99.90;;;;;;5014238;28;20703;-69
2022/03/08 05:26:41;;;;;;;16.40;11.17;;;-0.10;99.90;;;;;;5014030;28;20203;-68
2022/03/08 05:29:09;;;;;;;18.87;12.73;;;-0.10;99.90;;;;;;5013915;28;20199;-68
2022/03/08 05:31:38;;;;;;;21.30;12.77;;;-0.10;99.90;;;;;;5013716;28;20218;-69
2022/03/08 05:34:05;;;;;;;24.00;13.50;;;0.00;99.90;;;;;;5013938;28;20665;-69
2022/03/08 05:36:33;;;;;;;25.20;15.63;;;0.00;99.90;;;;;;5013569;28;20203;-69
2022/03/08 05:39:00;;;;;;;34.37;21.33;;;0.00;99.90;;;;;;5013475;28;20258;-70
2022/03/08 05:41:27;;;;;;;39.47;23.43;;;0.10;99.90;;;;;;5013580;28;20210;-69
2022/03/08 05:43:54;;;;;;;36.53;20.50;;;0.10;99.90;;;;;;5013615;28;20218;-69
2022/03/08 05:46:21;;;;;;;32.20;19.47;;;0.20;99.90;;;;;;5013522;28;20206;-69
2022/03/08 05:48:50;;;;;;;27.10;17.50;;;0.20;99.90;;;;;;5013454;28;20207;-69
2022/03/08 05:51:17;;;;;;;26.27;16.27;;;0.30;99.90;;;;;;5013738;28;20211;-69
2022/03/08 05:53:44;;;;;;;32.33;18.23;;;0.40;99.90;;;;;;5013211;28;20237;-69
2022/03/08 05:56:11;;;;;;;38.13;23.63;;;0.50;99.90;;;;;;5013454;28;20210;-68
2022/03/08 05:58:38;;;;;;;47.13;26.63;;;0.50;99.90;;;;;;5013401;28;20249;-69
2022/03/08 06:01:06;;;;;;;49.50;26.73;;;0.50;99.90;;;;;;5013358;28;20198;-69
2022/03/08 06:03:33;;;;;;;40.87;24.93;;;0.50;99.90;;;;;;5013194;28;20218;-69
2022/03/08 06:06:01;;;;;;;39.00;20.30;;;0.50;99.90;;;;;;5013532;28;20213;-71
2022/03/08 06:08:28;;;;;;;30.70;17.97;;;0.40;99.90;;;;;;5013366;28;20237;-69
2022/03/08 06:10:56;;;;;;;25.20;15.50;;;0.40;99.90;;;;;;5012970;28;20242;-68
2022/03/08 06:13:23;;;;;;;22.27;13.60;;;0.50;99.90;;;;;;5013121;28;20213;-69
2022/03/08 06:15:50;;;;;;;20.77;12.27;;;0.50;99.90;;;;;;5012762;28;20203;-70
2022/03/08 06:18:17;;;;;;;19.40;11.33;;;0.50;99.90;;;;;;5013076;28;20259;-69
2022/03/08 06:20:44;;;;;;;16.53;10.67;;;0.50;99.90;;;;;;5012688;28;20321;-68
2022/03/08 06:23:13;;;;;;;15.30;9.97;;;0.50;99.90;;;;;;5013241;28;20254;-69
2022/03/08 06:25:40;;;;;;;14.03;9.73;;;0.50;99.90;;;;;;5012890;28;20568;-69
2022/03/08 06:28:07;;;;;;;16.83;10.30;;;0.50;99.90;;;;;;5012638;28;20223;-68
2022/03/08 06:30:35;;;;;;;14.40;8.50;;;0.50;99.90;;;;;;5012988;28;20203;-68
2022/03/08 06:33:02;;;;;;;13.77;9.43;;;0.50;99.90;;;;;;5013196;28;20284;-69
2022/03/08 06:35:29;;;;;;;14.30;8.87;;;0.50;99.90;;;;;;5012473;28;20206;-69
2022/03/08 06:37:56;;;;;;;17.47;10.60;;;0.50;99.90;;;;;;5012665;28;20207;-71
2022/03/08 06:40:25;;;;;;;20.17;12.10;;;0.50;99.90;;;;;;5012102;28;20624;-71
2022/03/08 06:42:52;;;;;;;15.50;8.87;;;0.50;99.90;;;;;;5013243;28;20775;-70
2022/03/08 06:45:19;;;;;;;11.97;8.03;;;0.50;99.90;;;;;;5012531;28;20218;-70
2022/03/08 06:47:46;;;;;;;17.43;10.67;;;0.50;99.90;;;;;;5012151;28;20211;-67
2022/03/08 06:50:13;;;;;;;21.87;13.40;;;0.50;99.90;;;;;;5012700;28;20657;-69
2022/03/08 06:52:41;;;;;;;29.13;18.30;;;0.60;99.90;;;;;;5012841;28;20693;-69
2022/03/08 06:55:10;;;;;;;20.63;12.77;;;0.60;99.90;;;;;;5012639;28;20209;-68
2022/03/08 06:57:38;;;;;;;21.60;12.10;;;0.60;99.90;;;;;;5012364;28;20206;-70
2022/03/08 07:00:08;;;;;;;17.53;11.33;;;0.50;99.90;;;;;;5012463;28;20677;-69
2022/03/08 07:02:35;;;;;;;23.90;13.97;;;0.50;99.90;;;;;;5012669;28;20247;-69
2022/03/08 07:05:03;;;;;;;15.03;9.90;;;0.50;99.90;;;;;;5012489;28;20206;-69
2022/03/08 07:07:32;;;;;;;15.53;9.07;;;0.40;99.90;;;;;;5011876;28;20261;-69
2022/03/08 07:09:59;;;;;;;16.90;9.43;;;0.40;99.90;;;;;;5012072;28;20691;-69
2022/03/08 07:12:27;;;;;;;17.87;10.37;;;0.50;99.90;;;;;;5011901;28;20206;-69
2022/03/08 07:14:55;;;;;;;19.87;11.00;;;0.50;99.90;;;;;;5012228;28;20569;-70
2022/03/08 07:17:22;;;;;;;14.53;9.33;;;0.60;99.90;;;;;;5011863;28;20209;-69
2022/03/08 07:19:49;;;;;;;14.23;9.10;;;0.70;99.90;;;;;;5012451;28;20692;-68
2022/03/08 07:22:17;;;;;;;16.53;9.60;;;0.70;99.90;;;;;;5011855;28;20203;-69
2022/03/08 07:24:44;;;;;;;11.87;7.87;;;0.80;99.90;;;;;;5012102;28;20683;-69
2022/03/08 07:27:12;;;;;;;17.03;9.10;;;0.80;99.90;;;;;;5012472;28;20203;-69
2022/03/08 07:29:39;;;;;;;19.77;9.90;;;0.90;99.90;;;;;;5011733;28;20209;-69
2022/03/08 07:32:09;;;;;;;13.07;7.60;;;1.00;99.90;;;;;;5011793;28;20202;-70
2022/03/08 07:34:38;;;;;;;12.77;8.27;;;1.00;99.90;;;;;;5011734;28;20280;-69
2022/03/08 07:37:06;;;;;;;13.10;8.27;;;1.00;99.90;;;;;;5011959;28;20341;-69
2022/03/08 07:39:34;;;;;;;15.97;9.37;;;1.00;99.90;;;;;;5011759;28;20258;-69
2022/03/08 07:42:01;;;;;;;15.53;9.80;;;0.90;99.90;;;;;;5011832;28;20260;-68
2022/03/08 07:44:29;;;;;;;15.87;9.63;;;0.80;99.90;;;;;;5011685;28;20361;-69
2022/03/08 07:46:57;;;;;;;13.57;9.00;;;0.80;99.90;;;;;;5011836;28;20210;-68
2022/03/08 07:49:26;;;;;;;12.53;8.70;;;0.90;99.90;;;;;;5011546;28;20206;-69
2022/03/08 07:51:54;;;;;;;15.47;8.23;;;0.90;99.90;;;;;;5014648;28;20218;-69
2022/03/08 07:54:23;;;;;;;11.60;7.40;;;1.00;99.90;;;;;;5015421;28;20612;-70
2022/03/08 07:56:51;;;;;;;14.47;7.53;;;1.00;99.90;;;;;;5015844;28;20669;-69
2022/03/08 07:59:19;;;;;;;12.63;6.03;;;1.00;99.90;;;;;;5015274;28;20268;-68
2022/03/08 08:01:47;;;;;;;11.93;6.53;;;1.10;99.90;;;;;;5015360;28;20210;-69
2022/03/08 08:04:14;;;;;;;14.20;6.63;;;1.00;99.90;;;;;;5015239;28;20211;-70
2022/03/08 08:06:43;;;;;;;13.37;6.90;;;1.10;99.90;;;;;;4981346;28;20211;-68
2022/03/08 08:09:14;;;;;;;11.57;6.90;;;1.00;99.90;;;;;;5015872;28;20672;-70
2022/03/08 08:11:42;;;;;;;15.13;7.07;;;1.10;99.90;;;;;;5015464;28;20244;-70
2022/03/08 08:14:12;;;;;;;19.27;7.23;;;1.20;99.90;;;;;;5015499;28;20317;-69
2022/03/08 08:16:42;;;;;;;17.17;8.60;;;1.30;99.90;;;;;;5015994;28;20265;-69
2022/03/08 08:19:09;;;;;;;19.33;7.90;;;1.50;99.90;;;;;;5014918;28;20252;-69
2022/03/08 08:21:37;;;;;;;16.97;7.60;;;1.60;99.90;;;;;;4980832;28;20297;-69
2022/03/08 08:24:07;;;;;;;16.30;7.70;;;1.70;99.90;;;;;;5015279;28;20211;-69
2022/03/08 08:26:35;;;;;;;10.73;6.50;;;1.70;99.90;;;;;;5015027;28;20232;-68
2022/03/08 08:29:03;;;;;;;14.93;9.87;;;1.70;99.90;;;;;;5015027;28;20203;-69
2022/03/08 08:31:32;;;;;;;14.27;8.00;;;1.60;99.90;;;;;;5014875;28;20253;-70
2022/03/08 08:34:00;;;;;;;8.77;5.80;;;1.40;99.90;;;;;;5014859;28;20218;-68
2022/03/08 08:36:29;;;;;;;10.77;5.93;;;1.20;99.90;;;;;;5014643;28;20261;-69
2022/03/08 08:38:57;;;;;;;12.07;6.77;;;1.10;99.90;;;;;;5014735;28;20206;-69
2022/03/08 08:41:26;;;;;;;10.73;6.87;;;0.90;99.90;;;;;;5014610;28;20211;-69
2022/03/08 08:43:54;;;;;;;19.47;8.40;;;1.00;99.90;;;;;;4980146;28;20194;-69
2022/03/08 08:46:21;;;;;;;20.87;9.13;;;0.90;99.90;;;;;;5014324;28;20210;-69
2022/03/08 08:48:49;;;;;;;25.43;10.20;;;0.70;99.90;;;;;;5014538;28;20280;-69
2022/03/08 08:51:17;;;;;;;25.27;10.33;;;0.70;99.90;;;;;;5014447;28;20269;-69
2022/03/08 08:53:44;;;;;;;23.97;11.03;;;0.70;99.90;;;;;;5014487;28;20276;-69
2022/03/08 08:56:12;;;;;;;21.73;10.63;;;0.80;99.90;;;;;;5014260;28;20202;-68
2022/03/08 08:58:40;;;;;;;18.10;8.10;;;0.80;99.90;;;;;;5014287;28;20217;-69
2022/03/08 09:01:07;;;;;;;14.00;7.10;;;0.80;99.90;;;;;;5014163;28;20266;-70
2022/03/08 09:03:35;;;;;;;10.70;5.80;;;0.70;99.90;;;;;;5013676;28;20206;-69
2022/03/08 09:06:02;;;;;;;8.87;5.70;;;0.70;99.90;;;;;;5014345;28;20211;-69
2022/03/08 09:08:29;;;;;;;10.70;5.90;;;0.80;99.90;;;;;;5014186;28;20219;-69
2022/03/08 09:10:57;;;;;;;11.80;6.37;;;0.80;99.90;;;;;;5014288;28;20238;-69
2022/03/08 09:13:25;;;;;;;15.63;5.47;;;0.80;99.90;;;;;;5014309;28;20229;-69
2022/03/08 09:15:53;;;;;;;10.07;5.67;;;0.80;99.90;;;;;;5014127;28;20215;-69
2022/03/08 09:18:21;;;;;;;13.90;6.77;;;0.90;99.90;;;;;;5013809;28;20244;-69
2022/03/08 09:20:48;;;;;;;19.20;8.17;;;1.00;99.90;;;;;;5013925;28;20329;-69
2022/03/08 09:23:15;;;;;;;14.57;7.73;;;1.10;99.90;;;;;;5013981;28;20214;-68
2022/03/08 09:25:42;;;;;;;13.47;7.80;;;1.20;99.90;;;;;;5014109;28;20546;-68
2022/03/08 09:28:09;;;;;;;17.03;7.30;;;1.40;99.90;;;;;;5013594;28;20214;-68
2022/03/08 09:30:38;;;;;;;13.53;6.43;;;1.50;99.90;;;;;;5014127;28;20202;-68
2022/03/08 09:33:06;;;;;;;10.33;5.80;;;1.60;99.90;;;;;;5014321;28;20550;-68
2022/03/08 09:35:33;;;;;;;9.60;5.03;;;1.70;99.90;;;;;;5013789;28;20218;-69
2022/03/08 09:38:02;;;;;;;7.97;4.53;;;1.70;99.90;;;;;;5013560;28;20213;-69
2022/03/08 09:40:29;;;;;;;6.93;3.73;;;1.70;99.90;;;;;;5013982;28;20668;-69
2022/03/08 09:42:57;;;;;;;7.17;3.63;;;1.70;99.90;;;;;;5013985;28;20751;-68
2022/03/08 09:45:24;;;;;;;5.23;3.23;;;1.70;99.90;;;;;;5013688;28;20260;-69
2022/03/08 09:47:51;;;;;;;4.60;3.20;;;1.70;99.90;;;;;;5013651;28;20226;-68
2022/03/08 09:50:20;;;;;;;5.33;3.53;;;1.80;99.90;;;;;;5013281;28;20211;-69
2022/03/08 09:52:48;;;;;;;4.17;3.30;;;1.90;99.90;;;;;;5013388;28;20231;-69
2022/03/08 09:55:16;;;;;;;3.50;3.00;;;1.90;99.90;;;;;;5013505;28;20203;-68
2022/03/08 09:57:44;;;;;;;3.90;3.23;;;2.00;99.90;;;;;;5013494;28;20206;-68
2022/03/08 10:00:13;;;;;;;4.90;3.43;;;2.10;99.90;;;;;;5013361;28;20707;-69
2022/03/08 10:02:49;;;;;;;3.97;2.80;;;2.20;99.90;;;;;;5013279;28;20210;-68
2022/03/08 10:05:18;;;;;;;3.27;2.47;;;2.20;99.90;;;;;;5013366;28;20202;-69
2022/03/08 10:08:10;;;;;;;3.30;2.57;;;2.20;99.90;;;;;;5013477;28;20207;-68
2022/03/08 10:10:49;;;;;;;4.00;2.40;;;2.20;99.90;;;;;;5013127;28;20245;-69
2022/03/08 10:13:18;;;;;;;2.57;2.30;;;2.20;99.90;;;;;;5012757;28;20286;-68
2022/03/08 10:15:45;;;;;;;3.63;2.47;;;2.10;99.90;;;;;;5012952;28;20203;-70
2022/03/08 10:18:12;;;;;;;3.93;2.73;;;2.10;99.90;;;;;;5012789;28;20206;-69
2022/03/08 10:20:40;;;;;;;4.07;2.43;;;2.10;99.90;;;;;;5012965;28;20233;-69
2022/03/08 10:23:14;;;;;;;3.50;2.60;;;2.10;99.90;;;;;;5013071;28;20587;-70
2022/03/08 10:25:42;;;;;;;2.73;2.30;;;2.20;99.90;;;;;;5013062;28;20186;-70
2022/03/08 10:28:10;;;;;;;3.63;2.00;;;2.40;99.90;;;;;;5012892;28;20617;-68
2022/03/08 10:30:53;;;;;;;4.30;2.50;;;2.40;99.90;;;;;;5012716;28;20265;-69
2022/03/08 10:33:20;;;;;;;2.40;2.20;;;2.50;99.90;;;;;;5013040;28;20195;-69
2022/03/08 10:35:51;;;;;;;2.50;2.20;;;2.50;99.90;;;;;;5012493;28;20217;-69
2022/03/08 10:38:19;;;;;;;1.93;1.73;;;2.50;99.90;;;;;;5012854;28;20198;-68
2022/03/08 10:40:47;;;;;;;2.10;1.90;;;2.50;99.90;;;;;;5012461;28;20226;-70
2022/03/08 10:43:16;;;;;;;2.70;1.90;;;2.40;99.90;;;;;;5012699;28;20206;-69
2022/03/08 10:45:45;;;;;;;2.50;2.10;;;2.30;99.90;;;;;;5012699;28;20213;-68
2022/03/08 10:48:14;;;;;;;2.63;1.90;;;2.30;99.90;;;;;;5012292;28;20217;-68
2022/03/08 10:50:44;;;;;;;2.70;2.07;;;2.30;99.90;;;;;;5012469;28;20276;-68
2022/03/08 10:53:12;;;;;;;3.47;2.20;;;2.20;99.90;;;;;;5012369;28;20765;-68
2022/03/08 10:55:46;;;;;;;4.23;2.20;;;2.10;99.90;;;;;;5012678;28;20214;-69
2022/03/08 10:58:14;;;;;;;2.63;2.10;;;1.90;99.90;;;;;;5012693;28;20641;-69
2022/03/08 11:00:43;;;;;;;3.37;2.07;;;1.90;99.90;;;;;;5012401;28;20262;-69
2022/03/08 11:03:12;;;;;;;3.53;2.37;;;1.90;99.90;;;;;;5012358;28;20265;-70
2022/03/08 11:05:42;;;;;;;2.13;1.93;;;2.00;99.90;;;;;;5012373;28;20258;-69
2022/03/08 11:08:10;;;;;;;2.30;2.10;;;1.90;99.90;;;;;;5012014;28;20207;-69
2022/03/08 11:10:38;;;;;;;2.40;2.10;;;2.00;99.90;;;;;;5011943;28;20231;-69
2022/03/08 11:13:08;;;;;;;2.97;2.30;;;2.10;99.90;;;;;;5012168;28;20580;-69
2022/03/08 11:15:37;;;;;;;2.30;2.10;;;2.30;99.90;;;;;;5012081;28;20209;-70
2022/03/08 11:18:07;;;;;;;2.80;2.20;;;2.50;99.90;;;;;;5011898;28;20211;-68
2022/03/08 11:20:35;;;;;;;2.93;2.10;;;2.60;99.90;;;;;;5012410;28;20612;-68
2022/03/08 11:23:03;;;;;;;3.93;2.50;;;2.60;99.90;;;;;;5012457;28;20615;-68
2022/03/08 11:25:32;;;;;;;2.53;2.03;;;2.60;99.90;;;;;;5011500;28;20213;-70
2022/03/08 11:28:01;;;;;;;3.50;2.50;;;2.70;99.90;;;;;;5012176;28;20207;-69
2022/03/08 11:30:33;;;;;;;3.23;2.33;;;2.50;99.90;;;;;;5012001;28;20199;-69
2022/03/08 11:33:07;;;;;;;2.57;2.10;;;2.40;99.90;;;;;;5012408;28;20278;-70
2022/03/08 11:35:41;;;;;;;4.13;2.40;;;2.40;99.90;;;;;;5011948;28;20197;-69
2022/03/08 11:38:14;;;;;;;5.00;3.10;;;2.30;99.90;;;;;;5011944;28;20234;-69
2022/03/08 11:40:48;;;;;;;4.30;2.93;;;2.10;99.90;;;;;;5011779;28;20222;-69
2022/03/08 11:43:16;;;;;;;6.53;3.07;;;2.10;99.90;;;;;;5011796;28;20198;-69
2022/03/08 11:45:48;;;;;;;7.97;3.20;;;2.20;99.90;;;;;;5011917;28;20214;-69
2022/03/08 11:48:19;;;;;;;3.90;2.70;;;2.30;99.90;;;;;;5012074;28;20222;-68
2022/03/08 11:50:47;;;;;;;3.27;2.40;;;2.40;99.90;;;;;;5011794;28;20652;-68
2022/03/08 11:53:16;;;;;;;2.67;2.27;;;2.40;99.90;;;;;;5011433;28;20277;-69
2022/03/08 11:55:55;;;;;;;2.90;2.30;;;2.30;99.90;;;;;;5011339;28;20207;-69
2022/03/08 11:58:23;;;;;;;3.87;2.40;;;2.20;99.90;;;;;;5011647;28;20241;-70
2022/03/08 12:00:53;;;;;;;3.73;2.37;;;2.20;99.90;;;;;;5011501;28;20227;-69
2022/03/08 12:03:39;;;;;;;3.80;2.50;;;2.20;99.90;;;;;;5011509;28;20207;-69
2022/03/08 12:06:07;;;;;;;3.20;2.27;;;2.20;99.90;;;;;;5011766;28;20191;-70
2022/03/08 12:09:00;;;;;;;3.57;2.10;;;2.10;99.90;;;;;;5011714;28;20573;-69
2022/03/08 12:11:36;;;;;;;3.23;2.20;;;2.00;99.90;;;;;;5011175;28;20239;-68
2022/03/08 12:14:10;;;;;;;2.53;2.00;;;1.90;99.90;;;;;;5011599;28;20199;-69
2022/03/08 12:16:41;;;;;;;2.63;2.10;;;1.80;99.90;;;;;;5011702;28;20290;-69
2022/03/08 12:19:09;;;;;;;2.77;2.00;;;1.80;99.90;;;;;;5011504;28;20195;-69
2022/03/08 12:21:39;;;;;;;3.37;2.20;;;1.80;99.90;;;;;;5011212;28;20231;-69
2022/03/08 12:24:12;;;;;;;2.87;2.03;;;1.70;99.90;;;;;;5011488;28;20210;-70
2022/03/08 12:26:41;;;;;;;2.73;2.00;;;1.70;99.90;;;;;;5011119;28;20317;-69
2022/03/08 12:29:12;;;;;;;2.10;1.90;;;1.80;99.90;;;;;;5011729;28;20665;-68
2022/03/08 12:32:22;;;;;;;2.87;1.80;;;1.80;99.90;;;;;;5011628;28;20226;-69
2022/03/08 12:34:53;;;;;;;2.77;1.90;;;1.90;99.90;;;;;;5011474;28;20763;-68
2022/03/08 12:37:22;;;;;;;2.40;1.90;;;1.90;99.90;;;;;;5011574;28;20199;-69
2022/03/08 12:39:53;;;;;;;2.63;2.17;;;1.90;99.90;;;;;;5014923;28;20229;-69
2022/03/08 12:42:23;;;;;;;3.53;2.20;;;1.80;99.90;;;;;;5015133;28;20246;-69
2022/03/08 12:44:59;;;;;;;5.10;2.83;;;1.80;99.90;;;;;;5014473;28;20217;-68
2022/03/08 12:47:29;;;;;;;5.03;2.80;;;1.80;99.90;;;;;;5014930;28;20201;-68